createdAt,value
2023-04-16T00:01:41.264Z,5.20
2023-04-16T00:04:09.373Z,5.21
2023-04-16T00:06:37.654Z,5.21
2023-04-16T00:09:07.580Z,5.21
2023-04-16T00:11:36.100Z,5.22
2023-04-16T00:14:04.878Z,5.24
2023-04-16T00:16:33.290Z,5.26
2023-04-16T00:19:01.121Z,5.26
2023-04-16T00:21:29.142Z,5.26
2023-04-16T00:23:56.976Z,5.27
2023-04-16T00:26:25.301Z,5.29
2023-04-16T00:28:53.646Z,5.29
2023-04-16T00:31:31.891Z,5.29
2023-04-16T00:34:00.016Z,5.27
2023-04-16T00:36:28.410Z,5.25
2023-04-16T00:38:56.397Z,5.26
2023-04-16T00:41:24.359Z,5.26
2023-04-16T00:43:52.513Z,5.28
2023-04-16T00:46:21.367Z,5.28
2023-04-16T00:48:49.509Z,5.30
2023-04-16T00:51:18.564Z,5.31
2023-04-16T00:53:46.909Z,5.33
2023-04-16T00:56:15.635Z,5.34
2023-04-16T00:58:44.506Z,5.37
2023-04-16T01:01:14.631Z,5.37
2023-04-16T01:03:46.101Z,5.37
2023-04-16T01:06:14.270Z,5.38
2023-04-16T01:08:42.337Z,5.37
2023-04-16T01:11:11.097Z,5.40
2023-04-16T01:13:39.820Z,5.41
2023-04-16T01:16:08.806Z,5.43
2023-04-16T01:18:36.988Z,5.45
2023-04-16T01:21:05.146Z,5.45
2023-04-16T01:23:33.283Z,5.44
2023-04-16T01:26:01.452Z,5.44
2023-04-16T01:28:29.939Z,5.43
2023-04-16T01:30:58.190Z,5.44
2023-04-16T01:33:40.908Z,5.46
2023-04-16T01:36:08.898Z,5.47
2023-04-16T01:38:36.878Z,5.47
2023-04-16T01:41:04.771Z,5.46
2023-04-16T01:43:32.675Z,5.47
2023-04-16T01:46:33.566Z,5.48
2023-04-16T01:49:02.094Z,5.47
2023-04-16T01:51:30.103Z,5.46
2023-04-16T01:53:58.401Z,5.48
2023-04-16T01:56:26.657Z,5.48
2023-04-16T01:58:54.532Z,5.50
2023-04-16T02:01:22.697Z,5.51
2023-04-16T02:03:51.492Z,5.50
2023-04-16T02:06:19.959Z,5.51
2023-04-16T02:08:48.179Z,5.51
2023-04-16T02:11:16.084Z,5.51
2023-04-16T02:13:44.814Z,5.52
2023-04-16T02:16:14.218Z,5.55
2023-04-16T02:18:46.625Z,5.59
2023-04-16T02:21:16.338Z,5.60
2023-04-16T02:23:47.634Z,5.62
2023-04-16T02:26:15.717Z,5.63
2023-04-16T02:28:44.466Z,5.63
2023-04-16T02:31:13.233Z,5.62
2023-04-16T02:33:44.650Z,5.63
2023-04-16T02:36:12.943Z,5.66
2023-04-16T02:38:40.878Z,5.68
2023-04-16T02:41:09.195Z,5.69
2023-04-16T02:43:37.098Z,5.69
2023-04-16T02:46:05.605Z,5.67
2023-04-16T02:48:33.983Z,5.65
2023-04-16T02:51:02.433Z,5.63
2023-04-16T02:53:31.010Z,5.62
2023-04-16T02:55:59.023Z,5.63
2023-04-16T02:58:27.155Z,5.66
2023-04-16T03:00:55.364Z,5.67
2023-04-16T03:03:23.647Z,5.68
2023-04-16T03:05:51.606Z,5.68
2023-04-16T03:08:19.612Z,5.67
2023-04-16T03:10:47.824Z,5.67
2023-04-16T03:13:16.190Z,5.67
2023-04-16T03:15:51.898Z,5.67
2023-04-16T03:18:20.318Z,5.63
2023-04-16T03:20:53.925Z,5.61
2023-04-16T03:23:23.064Z,5.60
2023-04-16T03:25:51.431Z,5.61
2023-04-16T03:28:20.475Z,5.62
2023-04-16T03:30:52.938Z,5.64
2023-04-16T03:33:21.001Z,5.68
2023-04-16T03:35:57.237Z,5.70
2023-04-16T03:38:26.661Z,5.71
2023-04-16T03:40:56.520Z,5.71
2023-04-16T03:43:24.677Z,5.71
2023-04-16T03:45:52.814Z,5.74
2023-04-16T03:48:23.683Z,5.76
2023-04-16T03:50:51.696Z,5.79
2023-04-16T03:53:21.470Z,5.80
2023-04-16T03:55:51.496Z,5.84
2023-04-16T03:58:20.193Z,5.85
2023-04-16T04:00:48.527Z,5.85
2023-04-16T04:03:18.656Z,5.84
2023-04-16T04:05:48.363Z,5.82
2023-04-16T04:08:20.831Z,5.82
2023-04-16T04:10:48.877Z,5.81
2023-04-16T04:13:17.383Z,5.82
2023-04-16T04:15:45.335Z,5.83
2023-04-16T04:18:13.158Z,5.82
2023-04-16T04:20:41.378Z,5.83
2023-04-16T04:23:09.605Z,5.84
2023-04-16T04:25:37.742Z,5.84
2023-04-16T04:28:05.706Z,5.84
2023-04-16T04:30:35.837Z,5.83
2023-04-16T04:33:04.025Z,5.82
2023-04-16T04:35:32.345Z,5.81
2023-04-16T04:38:03.248Z,5.81
2023-04-16T04:40:31.544Z,5.79
2023-04-16T04:42:59.664Z,5.78
2023-04-16T04:45:28.501Z,5.77
2023-04-16T04:47:58.271Z,5.75
2023-04-16T04:50:26.510Z,5.75
2023-04-16T04:52:54.468Z,5.76
2023-04-16T04:55:22.848Z,5.79
2023-04-16T04:57:51.697Z,5.80
2023-04-16T05:00:21.026Z,5.81
2023-04-16T05:02:53.966Z,5.82
2023-04-16T05:05:22.334Z,5.83
2023-04-16T05:07:50.652Z,5.84
2023-04-16T05:10:18.563Z,5.83
2023-04-16T05:12:50.565Z,5.84
2023-04-16T05:15:18.386Z,5.85
2023-04-16T05:17:46.469Z,5.85
2023-04-16T05:20:14.411Z,5.86
2023-04-16T05:22:42.340Z,5.87
2023-04-16T05:25:11.169Z,5.87
2023-04-16T05:27:39.324Z,5.87
2023-04-16T05:30:07.810Z,5.90
2023-04-16T05:32:36.949Z,5.93
2023-04-16T05:35:05.252Z,5.94
2023-04-16T05:37:34.151Z,5.97
2023-04-16T05:40:02.519Z,5.98
2023-04-16T05:42:31.102Z,6.00
2023-04-16T05:44:59.100Z,6.00
2023-04-16T05:47:26.980Z,6.02
2023-04-16T05:49:54.959Z,6.03
2023-04-16T05:52:22.839Z,6.04
2023-04-16T05:54:51.164Z,6.09
2023-04-16T05:57:19.048Z,6.12
2023-04-16T05:59:46.939Z,6.14
2023-04-16T06:02:14.989Z,6.15
2023-04-16T06:04:42.984Z,6.14
2023-04-16T06:07:10.882Z,6.11
2023-04-16T06:09:39.313Z,6.11
2023-04-16T06:12:07.370Z,6.13
2023-04-16T06:14:35.801Z,6.17
2023-04-16T06:17:03.681Z,6.21
2023-04-16T06:19:31.749Z,6.22
2023-04-16T06:21:59.653Z,6.24
2023-04-16T06:24:27.547Z,6.25
2023-04-16T06:26:55.539Z,6.26
2023-04-16T06:29:30.682Z,6.25
2023-04-16T06:32:08.149Z,6.28
2023-04-16T06:34:37.897Z,6.29
2023-04-16T06:37:07.785Z,6.30
2023-04-16T06:39:37.357Z,6.32
2023-04-16T06:42:05.476Z,6.36
2023-04-16T06:44:33.609Z,6.37
2023-04-16T06:47:01.619Z,6.38
2023-04-16T06:49:29.588Z,6.40
2023-04-16T06:51:57.718Z,6.41
2023-04-16T06:54:25.674Z,6.39
2023-04-16T06:56:53.645Z,6.39
2023-04-16T06:59:21.799Z,6.37
2023-04-16T07:01:49.818Z,6.36
2023-04-16T07:04:18.332Z,6.38
2023-04-16T07:06:46.292Z,6.41
2023-04-16T07:09:14.120Z,6.43
2023-04-16T07:11:42.151Z,6.43
2023-04-16T07:14:10.107Z,6.41
2023-04-16T07:16:38.200Z,6.43
2023-04-16T07:19:06.385Z,6.43
2023-04-16T07:21:34.596Z,6.46
2023-04-16T07:24:03.024Z,6.46
2023-04-16T07:26:31.341Z,6.45
2023-04-16T07:28:59.175Z,6.46
2023-04-16T07:31:27.204Z,6.49
2023-04-16T07:33:55.188Z,6.49
2023-04-16T07:36:23.186Z,6.51
2023-04-16T07:38:51.499Z,6.54
2023-04-16T07:41:19.379Z,6.57
2023-04-16T07:43:49.416Z,6.61
2023-04-16T07:46:17.382Z,6.64
2023-04-16T07:48:45.377Z,6.65
2023-04-16T07:51:13.608Z,6.68
2023-04-16T07:53:42.163Z,6.69
2023-04-16T07:56:10.052Z,6.68
2023-04-16T07:58:38.209Z,6.66
2023-04-16T08:01:06.441Z,6.64
2023-04-16T08:03:35.345Z,6.65
2023-04-16T08:06:03.657Z,6.66
2023-04-16T08:08:32.708Z,6.67
2023-04-16T08:11:00.684Z,6.66
2023-04-16T08:13:30.845Z,6.67
2023-04-16T08:16:00.286Z,6.68
2023-04-16T08:18:28.162Z,6.67
2023-04-16T08:20:56.070Z,6.67
2023-04-16T08:23:24.504Z,6.68
2023-04-16T08:25:53.123Z,6.69
2023-04-16T08:28:21.352Z,6.73
2023-04-16T08:30:49.512Z,6.77
2023-04-16T08:33:17.636Z,6.77
2023-04-16T08:35:45.497Z,6.74
2023-04-16T08:38:13.374Z,6.71
2023-04-16T08:40:41.509Z,6.69
2023-04-16T08:43:13.790Z,6.69
2023-04-16T08:45:43.088Z,6.72
2023-04-16T08:48:11.807Z,6.74
2023-04-16T08:50:39.859Z,6.77
2023-04-16T08:53:07.791Z,6.81
2023-04-16T08:55:43.944Z,6.84
2023-04-16T08:58:14.571Z,6.86
2023-04-16T09:00:43.459Z,6.89
2023-04-16T09:03:11.611Z,6.91
2023-04-16T09:05:39.691Z,6.92
2023-04-16T09:08:07.621Z,6.92
2023-04-16T09:10:35.512Z,6.93
2023-04-16T09:13:05.082Z,6.91
2023-04-16T09:15:34.979Z,6.90
2023-04-16T09:18:03.455Z,6.92
2023-04-16T09:20:31.450Z,6.94
2023-04-16T09:22:59.270Z,6.96
2023-04-16T09:25:27.187Z,6.94
2023-04-16T09:27:55.675Z,6.93
2023-04-16T09:30:26.137Z,6.95
2023-04-16T09:33:14.634Z,7.01
2023-04-16T09:35:47.239Z,7.08
2023-04-16T09:38:16.547Z,7.12
2023-04-16T09:40:44.453Z,7.17
2023-04-16T09:43:18.441Z,7.19
2023-04-16T09:45:53.845Z,7.17
2023-04-16T09:48:31.501Z,7.12
2023-04-16T09:51:00.257Z,7.08
2023-04-16T09:53:29.407Z,7.10
2023-04-16T09:56:05.044Z,7.10
2023-04-16T09:58:36.276Z,7.08
2023-04-16T10:01:07.877Z,7.07
2023-04-16T10:03:37.268Z,7.07
2023-04-16T10:06:15.912Z,7.08
2023-04-16T10:08:49.226Z,7.08
2023-04-16T10:11:18.709Z,7.05
2023-04-16T10:13:46.999Z,7.03
2023-04-16T10:16:14.942Z,6.98
2023-04-16T10:18:43.991Z,6.96
2023-04-16T10:21:12.778Z,6.97
2023-04-16T10:23:41.011Z,7.00
2023-04-16T10:26:08.897Z,7.05
2023-04-16T10:28:38.604Z,7.07
2023-04-16T10:31:07.791Z,7.09
2023-04-16T10:33:38.002Z,7.13
2023-04-16T10:36:23.107Z,7.13
2023-04-16T10:38:52.451Z,7.11
2023-04-16T10:41:20.755Z,7.09
2023-04-16T10:43:49.905Z,7.10
2023-04-16T10:46:31.458Z,7.11
2023-04-16T10:49:03.770Z,7.10
2023-04-16T10:51:36.320Z,7.10
2023-04-16T10:54:19.487Z,7.14
2023-04-16T10:56:47.769Z,7.19
2023-04-16T10:59:18.524Z,7.21
2023-04-16T11:01:48.685Z,7.20
2023-04-16T11:04:19.672Z,7.21
2023-04-16T11:07:07.389Z,7.21
2023-04-16T11:10:02.130Z,7.20
2023-04-16T11:12:39.955Z,7.18
2023-04-16T11:15:15.319Z,7.18
2023-04-16T11:17:47.324Z,7.26
2023-04-16T11:20:18.104Z,7.31
2023-04-16T11:22:49.338Z,7.39
2023-04-16T12:03:44.224Z,7.73
2023-04-16T12:06:12.589Z,7.78
2023-04-16T12:08:40.729Z,7.74
2023-04-16T12:11:08.628Z,7.75
2023-04-16T12:13:40.001Z,7.77
2023-04-16T12:16:19.838Z,7.77
2023-04-16T12:19:04.165Z,7.77
2023-04-16T12:21:39.514Z,7.75
2023-04-16T12:24:08.175Z,7.70
2023-04-16T12:26:38.473Z,7.69
2023-04-16T12:29:20.982Z,7.66
2023-04-16T12:31:50.108Z,7.64
2023-04-16T12:34:18.915Z,7.64
2023-04-16T12:36:47.735Z,7.67
2023-04-16T12:39:15.891Z,7.69
2023-04-16T12:41:43.850Z,7.69
2023-04-16T12:44:20.829Z,7.71
2023-04-16T12:46:48.751Z,7.71
2023-04-16T12:49:16.676Z,7.70
2023-04-16T12:51:44.637Z,7.70
2023-04-16T13:06:21.417Z,8.06
2023-04-16T13:08:49.396Z,8.08
2023-04-16T13:24:47.056Z,8.24
2023-04-16T13:27:17.110Z,8.26
2023-04-16T13:29:45.257Z,8.18
2023-04-16T13:32:14.884Z,8.10
2023-04-16T13:34:43.321Z,8.06
2023-04-16T13:37:11.344Z,8.06
2023-04-16T13:39:39.528Z,8.05
2023-04-16T13:42:07.592Z,8.02
2023-04-16T13:44:42.016Z,8.00
2023-04-16T13:47:11.289Z,8.01
2023-04-16T13:49:39.286Z,7.98
2023-04-16T13:52:07.642Z,7.94
2023-04-16T13:54:35.674Z,7.89
2023-04-16T13:57:04.392Z,7.86
2023-04-16T13:59:35.455Z,7.83
2023-04-16T14:02:19.173Z,7.80
2023-04-16T14:04:49.282Z,7.79
2023-04-16T14:07:17.424Z,7.78
2023-04-16T14:09:54.205Z,7.75
2023-04-16T14:12:22.436Z,7.68
2023-04-16T14:14:55.344Z,7.65
2023-04-16T14:17:49.680Z,7.64
2023-04-16T14:20:21.661Z,7.64
2023-04-16T14:23:05.651Z,7.66
2023-04-16T14:25:51.532Z,7.66
2023-04-16T14:28:19.952Z,7.66
2023-04-16T14:30:48.531Z,7.68
2023-04-16T14:33:29.780Z,7.67
2023-04-16T14:36:02.057Z,7.61
2023-04-16T14:38:33.325Z,7.59
2023-04-16T14:41:04.306Z,7.57
2023-04-16T14:43:33.132Z,7.58
2023-04-16T14:46:02.313Z,7.61
2023-04-16T14:48:31.443Z,7.62
2023-04-16T14:51:04.169Z,7.67
2023-04-16T14:53:54.466Z,7.68
2023-04-16T14:56:22.839Z,7.66
2023-04-16T14:58:51.114Z,7.62
2023-04-16T15:01:19.437Z,7.60
2023-04-16T15:03:49.892Z,7.60
2023-04-16T15:06:19.081Z,7.61
2023-04-16T15:08:51.478Z,7.62
2023-04-16T15:11:34.347Z,7.61
2023-04-16T15:14:05.305Z,7.59
2023-04-16T15:16:34.010Z,7.57
2023-04-16T15:19:04.370Z,7.55
2023-04-16T15:21:33.169Z,7.53
2023-04-16T15:24:01.543Z,7.53
2023-04-16T15:26:36.624Z,7.53
2023-04-16T15:29:07.570Z,7.52
2023-04-16T15:31:35.682Z,7.49
2023-04-16T15:34:11.604Z,7.48
2023-04-16T15:36:40.098Z,7.48
2023-04-16T15:39:10.018Z,7.48
2023-04-16T15:41:50.193Z,7.47
2023-04-16T15:44:26.847Z,7.46
2023-04-16T15:47:24.365Z,7.46
2023-04-16T15:49:58.344Z,7.45
2023-04-16T15:52:35.607Z,7.42
2023-04-16T15:55:12.687Z,7.41
2023-04-16T15:57:46.495Z,7.41
2023-04-16T16:00:19.099Z,7.39
2023-04-16T16:02:51.558Z,7.37
2023-04-16T16:05:37.295Z,7.37
2023-04-16T16:08:15.622Z,7.39
2023-04-16T16:10:44.190Z,7.41
2023-04-16T16:13:14.184Z,7.42
2023-04-16T16:15:43.005Z,7.42
2023-04-16T16:18:13.226Z,7.43
2023-04-16T16:20:41.697Z,7.42
2023-04-16T16:23:12.865Z,7.40
2023-04-16T16:25:44.041Z,7.39
2023-04-16T16:28:15.401Z,7.41
2023-04-16T16:30:43.712Z,7.41
2023-04-16T16:33:12.709Z,7.42
2023-04-16T16:35:40.773Z,7.43
2023-04-16T16:38:09.040Z,7.41
2023-04-16T16:40:40.834Z,7.38
2023-04-16T16:43:09.106Z,7.34
2023-04-16T16:45:38.938Z,7.33
2023-04-16T16:48:07.598Z,7.33
2023-04-16T16:50:36.048Z,7.32
2023-04-16T16:53:08.412Z,7.32
2023-04-16T16:55:36.477Z,7.32
2023-04-16T16:58:04.573Z,7.29
2023-04-16T17:00:34.206Z,7.28
2023-04-16T17:03:02.626Z,7.28
2023-04-16T17:05:33.775Z,7.28
2023-04-16T17:08:05.068Z,7.27
2023-04-16T17:10:33.326Z,7.26
2023-04-16T17:13:04.005Z,7.27
2023-04-16T17:15:32.245Z,7.29
2023-04-16T17:18:06.243Z,7.29
2023-04-16T17:20:36.251Z,7.27
2023-04-16T17:23:07.316Z,7.23
2023-04-16T17:25:38.558Z,7.21
2023-04-16T17:28:06.821Z,7.19
2023-04-16T17:30:36.931Z,7.20
2023-04-16T17:33:05.392Z,7.20
2023-04-16T17:35:36.213Z,7.18
2023-04-16T17:38:04.607Z,7.17
2023-04-16T17:40:32.950Z,7.17
2023-04-16T17:43:01.192Z,7.16
2023-04-16T17:45:36.703Z,7.15
2023-04-16T17:48:05.261Z,7.13
2023-04-16T17:50:34.147Z,7.12
2023-04-16T17:53:03.895Z,7.14
2023-04-16T17:55:32.749Z,7.14
2023-04-16T17:58:02.779Z,7.17
2023-04-16T18:00:31.467Z,7.19
2023-04-16T18:03:00.362Z,7.18
2023-04-16T18:05:28.749Z,7.15
2023-04-16T18:08:01.636Z,7.11
2023-04-16T18:10:31.738Z,7.08
2023-04-16T18:12:59.893Z,7.07
2023-04-16T18:15:28.035Z,7.07
2023-04-16T18:17:56.636Z,7.07
2023-04-16T18:20:24.833Z,7.08
2023-04-16T18:22:53.266Z,7.09
2023-04-16T18:25:32.288Z,7.11
2023-04-16T18:28:03.908Z,7.12
2023-04-16T18:30:32.469Z,7.14
2023-04-16T18:33:26.316Z,7.16
2023-04-16T18:35:49.942Z,7.16
2023-04-16T18:38:18.099Z,7.16
2023-04-16T18:40:47.206Z,7.18
2023-04-16T18:43:16.265Z,7.19
2023-04-16T18:45:44.440Z,7.21
2023-04-16T18:48:13.010Z,7.21
2023-04-16T18:50:41.102Z,7.20
2023-04-16T18:53:09.386Z,7.21
2023-04-16T18:55:38.082Z,7.20
2023-04-16T18:58:06.261Z,7.17
2023-04-16T19:00:35.114Z,7.12
2023-04-16T19:03:07.110Z,7.12
2023-04-16T19:05:36.916Z,7.15
2023-04-16T19:08:05.476Z,7.16
2023-04-16T19:10:34.990Z,7.16
2023-04-16T19:13:04.737Z,7.17
2023-04-16T19:15:34.775Z,7.16
2023-04-16T19:18:03.533Z,7.16
2023-04-16T19:20:37.569Z,7.17
2023-04-16T19:23:06.058Z,7.20
2023-04-16T19:25:36.630Z,7.19
2023-04-16T19:28:05.043Z,7.20
2023-04-16T19:30:33.553Z,7.19
2023-04-16T19:33:01.960Z,7.21
2023-04-16T19:35:30.307Z,7.21
2023-04-16T19:37:58.788Z,7.21
2023-04-16T19:40:26.993Z,7.21
2023-04-16T19:42:55.033Z,7.22
2023-04-16T19:45:26.041Z,7.22
2023-04-16T19:47:54.213Z,7.23
2023-04-16T19:50:23.934Z,7.24
2023-04-16T19:52:52.513Z,7.25
2023-04-16T19:55:23.216Z,7.27
2023-04-16T19:57:51.428Z,7.28
2023-04-16T20:00:22.795Z,7.28
2023-04-16T20:02:51.348Z,7.29
2023-04-16T20:05:19.557Z,7.30
2023-04-16T20:07:52.723Z,7.30
2023-04-16T20:10:21.478Z,7.30
2023-04-16T20:12:50.960Z,7.30
2023-04-16T20:15:19.621Z,7.30
2023-04-16T20:17:48.129Z,7.30
2023-04-16T20:20:16.522Z,7.28
2023-04-16T20:22:45.072Z,7.28
2023-04-16T20:25:14.571Z,7.28
2023-04-16T20:27:43.828Z,7.29
2023-04-16T20:30:12.759Z,7.28
2023-04-16T20:32:41.214Z,7.28
2023-04-16T20:35:11.661Z,7.29
2023-04-16T20:37:42.326Z,7.31
2023-04-16T20:40:11.160Z,7.30
2023-04-16T20:42:40.947Z,7.27
2023-04-16T20:45:09.728Z,7.26
2023-04-16T20:47:38.805Z,7.26
2023-04-16T20:50:07.860Z,7.25
2023-04-16T20:52:38.061Z,7.22
2023-04-16T20:55:08.275Z,7.20
2023-04-16T20:57:36.453Z,7.20
2023-04-16T21:00:08.984Z,7.20
2023-04-16T21:02:37.700Z,7.20
2023-04-16T21:05:09.364Z,7.20
2023-04-16T21:07:38.051Z,7.20
2023-04-16T21:10:10.087Z,7.21
2023-04-16T21:12:38.748Z,7.21
2023-04-16T21:15:10.250Z,7.21
2023-04-16T21:17:39.496Z,7.21
2023-04-16T21:20:10.877Z,7.22
2023-04-16T21:22:39.743Z,7.24
2023-04-16T21:25:08.775Z,7.27
2023-04-16T21:27:37.634Z,7.29
2023-04-16T21:30:06.598Z,7.30
2023-04-16T21:32:35.598Z,7.30
2023-04-16T21:35:04.247Z,7.29
2023-04-16T21:37:32.430Z,7.29
2023-04-16T21:40:00.915Z,7.30
2023-04-16T21:42:31.604Z,7.31
2023-04-16T21:44:59.933Z,7.31
2023-04-16T21:47:27.997Z,7.32
2023-04-16T21:49:56.233Z,7.33
2023-04-16T21:52:24.653Z,7.34
2023-04-16T21:54:53.026Z,7.33
2023-04-16T21:57:21.296Z,7.32
2023-04-16T21:59:49.743Z,7.33
2023-04-16T22:02:18.143Z,7.32
2023-04-16T22:04:46.611Z,7.32
2023-04-16T22:07:17.105Z,7.33
2023-04-16T22:09:45.733Z,7.36
2023-04-16T22:12:14.055Z,7.36
2023-04-16T22:14:52.326Z,7.37
2023-04-16T22:17:30.590Z,7.39
2023-04-16T22:20:01.050Z,7.41
2023-04-16T22:22:29.880Z,7.43
2023-04-16T22:24:58.286Z,7.43
2023-04-16T22:27:26.604Z,7.44
2023-04-16T22:29:54.964Z,7.43
2023-04-16T22:32:23.315Z,7.42
2023-04-16T22:34:52.472Z,7.38
2023-04-16T22:37:20.979Z,7.36
2023-04-16T22:39:49.124Z,7.34
2023-04-16T22:42:17.368Z,7.32
2023-04-16T22:44:46.182Z,7.31
2023-04-16T22:47:14.622Z,7.29
2023-04-16T22:49:42.857Z,7.26
2023-04-16T22:52:11.220Z,7.24
2023-04-16T22:54:39.945Z,7.24
2023-04-16T22:57:10.378Z,7.26
2023-04-16T22:59:38.409Z,7.28
2023-04-16T23:02:06.585Z,7.27
2023-04-16T23:04:35.021Z,7.27
2023-04-16T23:07:03.447Z,7.26
2023-04-16T23:09:32.978Z,7.24
2023-04-16T23:12:02.076Z,7.23
2023-04-16T23:14:31.686Z,7.23
2023-04-16T23:16:59.941Z,7.24
2023-04-16T23:19:28.245Z,7.24
2023-04-16T23:21:56.719Z,7.26
2023-04-16T23:24:24.973Z,7.25
2023-04-16T23:26:53.347Z,7.25
2023-04-16T23:29:21.661Z,7.23
2023-04-16T23:31:50.216Z,7.24
2023-04-16T23:34:18.390Z,7.25
2023-04-16T23:36:46.816Z,7.27
2023-04-16T23:39:14.957Z,7.27
2023-04-16T23:41:43.349Z,7.27
2023-04-16T23:44:11.507Z,7.29
2023-04-16T23:46:41.083Z,7.31
2023-04-16T23:49:09.538Z,7.32
2023-04-16T23:51:38.658Z,7.34
2023-04-16T23:54:07.074Z,7.33
2023-04-16T23:56:35.735Z,7.33
2023-04-16T23:59:03.898Z,7.31
